Time;durP1;ratioP1;P1;durP2;ratioP2;P2;SDS_P1;SDS_P2;PMS_P1;PMS_P2;Temp;Humidity;BMP_temperature;BMP_pressure;BME280_temperature;BME280_humidity;BME280_pressure;Samples;Min_cycle;Max_cycle;Signal;HPM_P1;HPM_P2
2022/07/08 00:00:27;;;;;;;12.40;10.07;;;15.30;99.90;;;;;;5092683;28;20458;-66
2022/07/08 00:02:55;;;;;;;12.60;11.30;;;15.30;99.90;;;;;;5099254;27;20479;-67
2022/07/08 00:05:23;;;;;;;11.90;10.70;;;15.30;99.90;;;;;;5097811;28;21395;-68
2022/07/08 00:07:50;;;;;;;13.70;11.13;;;15.30;99.90;;;;;;5094031;28;20466;-66
2022/07/08 00:10:18;;;;;;;15.03;11.87;;;15.30;99.90;;;;;;5101647;28;20464;-66
2022/07/08 00:12:44;;;;;;;12.90;11.40;;;15.30;99.90;;;;;;5095776;28;20480;-66
2022/07/08 00:15:13;;;;;;;14.00;11.30;;;15.30;99.90;;;;;;5093074;28;20532;-68
2022/07/08 00:17:40;;;;;;;11.87;10.83;;;15.30;99.90;;;;;;5101626;28;20992;-68
2022/07/08 00:20:08;;;;;;;16.77;11.13;;;15.20;99.90;;;;;;5087776;28;20548;-66
2022/07/08 00:22:36;;;;;;;12.10;10.80;;;15.30;99.90;;;;;;5091559;28;20458;-66
2022/07/08 00:25:03;;;;;;;12.10;11.00;;;15.40;99.90;;;;;;5095435;28;20898;-67
2022/07/08 00:27:30;;;;;;;12.70;11.50;;;15.30;99.90;;;;;;5091594;28;20992;-67
2022/07/08 00:29:58;;;;;;;13.63;11.47;;;15.30;99.90;;;;;;5093876;28;20528;-65
2022/07/08 00:32:26;;;;;;;21.30;11.40;;;15.20;99.90;;;;;;5094173;28;20465;-66
2022/07/08 00:34:53;;;;;;;12.63;11.47;;;15.20;99.90;;;;;;5095066;28;20477;-66
2022/07/08 00:37:20;;;;;;;12.43;11.03;;;15.10;99.90;;;;;;5098303;28;20473;-68
2022/07/08 00:39:47;;;;;;;12.30;11.27;;;15.20;99.90;;;;;;5094399;28;20569;-67
2022/07/08 00:42:15;;;;;;;12.40;11.30;;;15.20;99.90;;;;;;5095695;28;20565;-68
2022/07/08 00:44:42;;;;;;;12.30;11.20;;;15.20;99.90;;;;;;5088319;28;20948;-66
2022/07/08 00:47:09;;;;;;;12.50;11.20;;;15.20;99.90;;;;;;5091338;28;20581;-67
2022/07/08 00:49:38;;;;;;;12.07;10.90;;;15.20;99.90;;;;;;5099300;28;20480;-66
2022/07/08 00:52:06;;;;;;;12.80;11.70;;;15.20;99.90;;;;;;5096797;28;20450;-67
2022/07/08 00:54:33;;;;;;;13.67;11.63;;;15.10;99.90;;;;;;5096014;28;20804;-67
2022/07/08 00:57:01;;;;;;;12.53;10.93;;;15.10;99.90;;;;;;5097220;28;20467;-67
2022/07/08 00:59:28;;;;;;;12.87;11.67;;;15.20;99.90;;;;;;5095760;28;20798;-66
2022/07/08 01:01:55;;;;;;;12.47;11.13;;;15.20;99.90;;;;;;5090753;28;20456;-65
2022/07/08 01:04:22;;;;;;;10.83;9.93;;;15.20;99.90;;;;;;5091613;28;20481;-67
2022/07/08 01:06:50;;;;;;;12.33;11.17;;;15.10;99.90;;;;;;5094591;28;20462;-68
2022/07/08 01:09:17;;;;;;;12.47;11.17;;;15.10;99.90;;;;;;5092052;28;20619;-68
2022/07/08 01:11:46;;;;;;;12.53;10.73;;;15.20;99.90;;;;;;5088899;28;20822;-66
2022/07/08 01:14:13;;;;;;;13.27;11.50;;;15.10;99.90;;;;;;5095583;28;20570;-66
2022/07/08 01:16:41;;;;;;;12.30;11.23;;;15.00;99.90;;;;;;5097645;28;20837;-66
2022/07/08 01:19:08;;;;;;;12.53;11.27;;;15.00;99.90;;;;;;5093309;28;20454;-68
2022/07/08 01:21:36;;;;;;;12.23;11.20;;;15.00;99.90;;;;;;5101326;28;20469;-66
2022/07/08 01:24:03;;;;;;;14.83;11.67;;;15.00;99.90;;;;;;5088388;28;20458;-66
2022/07/08 01:26:30;;;;;;;17.67;12.50;;;15.10;99.90;;;;;;5093042;28;20866;-68
2022/07/08 01:28:59;;;;;;;11.80;11.00;;;15.00;99.90;;;;;;5096840;28;20457;-66
2022/07/08 01:31:26;;;;;;;11.60;10.67;;;15.00;99.90;;;;;;5090063;28;20489;-66
2022/07/08 01:33:53;;;;;;;12.13;10.80;;;15.00;99.90;;;;;;5093688;28;20469;-66
2022/07/08 01:36:20;;;;;;;12.90;11.33;;;15.00;99.90;;;;;;5088271;28;20482;-66
2022/07/08 01:38:48;;;;;;;12.60;11.40;;;14.90;99.90;;;;;;5090902;28;21036;-66
2022/07/08 01:41:15;;;;;;;12.87;11.60;;;14.90;99.90;;;;;;5089881;28;20454;-66
2022/07/08 01:43:57;;;;;;;11.90;10.90;;;14.90;99.90;;;;;;5091396;28;20531;-66
2022/07/08 01:46:24;;;;;;;22.10;12.17;;;15.00;99.90;;;;;;5088924;28;20454;-68
2022/07/08 01:48:51;;;;;;;12.80;11.50;;;14.90;99.90;;;;;;5092251;28;20964;-65
2022/07/08 01:51:18;;;;;;;11.80;10.83;;;15.00;99.90;;;;;;5092698;28;20453;-68
2022/07/08 01:53:45;;;;;;;13.00;11.60;;;15.00;99.90;;;;;;5089860;28;20462;-66
2022/07/08 01:56:13;;;;;;;12.70;11.37;;;15.00;99.90;;;;;;5099154;28;20866;-68
2022/07/08 01:58:40;;;;;;;11.30;10.30;;;15.00;99.90;;;;;;5088561;28;20458;-67
2022/07/08 02:01:07;;;;;;;12.43;11.40;;;15.00;99.90;;;;;;5099383;28;20469;-68
2022/07/08 02:03:34;;;;;;;14.50;11.47;;;15.00;99.90;;;;;;5094796;28;20792;-67
2022/07/08 02:06:01;;;;;;;12.83;11.57;;;15.00;99.90;;;;;;5094639;28;20450;-65
2022/07/08 02:08:43;;;;;;;17.43;11.33;;;15.00;99.90;;;;;;5094328;28;20457;-66
2022/07/08 02:13:56;;;;;;;12.00;11.10;;;14.90;99.90;;;;;;5095431;28;20480;-67
2022/07/08 02:16:23;;;;;;;11.63;10.77;;;14.90;99.90;;;;;;5094229;28;21051;-66
2022/07/08 02:18:50;;;;;;;13.23;12.10;;;14.80;99.90;;;;;;5099868;28;20475;-65
2022/07/08 02:21:17;;;;;;;12.20;11.00;;;14.80;99.90;;;;;;5091814;28;20970;-66
2022/07/08 02:23:44;;;;;;;12.53;11.13;;;14.80;99.90;;;;;;5099972;28;20468;-66
2022/07/08 02:26:11;;;;;;;12.07;11.10;;;14.80;99.90;;;;;;5095258;28;20960;-66
2022/07/08 02:28:38;;;;;;;17.83;12.07;;;14.70;99.90;;;;;;5102808;28;20462;-67
2022/07/08 02:31:07;;;;;;;16.10;12.17;;;14.70;99.90;;;;;;5102830;28;20875;-66
2022/07/08 02:33:34;;;;;;;13.60;12.23;;;14.80;99.90;;;;;;5093907;28;20485;-66
2022/07/08 02:36:01;;;;;;;13.20;11.90;;;14.80;99.90;;;;;;5094735;28;20490;-66
2022/07/08 02:38:27;;;;;;;12.10;11.23;;;14.80;99.90;;;;;;5096016;28;20453;-67
2022/07/08 02:40:54;;;;;;;19.73;12.10;;;14.70;99.90;;;;;;5100559;28;20642;-66
2022/07/08 02:43:21;;;;;;;12.77;11.63;;;14.70;99.90;;;;;;5099480;28;20457;-67
2022/07/08 02:45:48;;;;;;;11.80;10.90;;;14.60;99.90;;;;;;5101837;28;20861;-67
2022/07/08 02:48:17;;;;;;;12.70;11.40;;;14.60;99.90;;;;;;5097276;28;20468;-68
2022/07/08 02:50:44;;;;;;;12.87;11.60;;;14.70;99.90;;;;;;5096651;28;20549;-67
2022/07/08 02:53:13;;;;;;;11.83;10.93;;;14.70;99.90;;;;;;5092894;28;20468;-67
2022/07/08 02:55:41;;;;;;;12.17;10.90;;;14.70;99.90;;;;;;5095831;28;20497;-68
2022/07/08 02:58:08;;;;;;;21.57;12.13;;;14.60;99.90;;;;;;5096936;28;20481;-67
2022/07/08 03:00:34;;;;;;;13.03;11.63;;;14.60;99.90;;;;;;5095173;28;20550;-67
2022/07/08 03:03:02;;;;;;;15.10;11.40;;;14.60;99.90;;;;;;5097376;28;20457;-67
2022/07/08 03:05:31;;;;;;;11.70;10.87;;;14.60;99.90;;;;;;5092724;28;20553;-67
2022/07/08 03:07:59;;;;;;;19.90;11.57;;;14.50;99.90;;;;;;5095008;28;20978;-66
2022/07/08 03:10:25;;;;;;;12.80;11.50;;;14.60;99.90;;;;;;5092469;28;20952;-67
2022/07/08 03:12:52;;;;;;;12.50;11.20;;;14.50;99.90;;;;;;5088864;28;20457;-66
2022/07/08 03:15:19;;;;;;;12.27;11.27;;;14.50;99.90;;;;;;5095713;28;20474;-68
2022/07/08 03:17:46;;;;;;;17.20;11.10;;;14.50;99.90;;;;;;5094781;28;20471;-65
2022/07/08 03:20:14;;;;;;;11.70;10.70;;;14.40;99.90;;;;;;5095723;28;20458;-67
2022/07/08 03:22:42;;;;;;;13.83;12.47;;;14.40;99.90;;;;;;5096466;28;20522;-66
2022/07/08 03:25:10;;;;;;;14.03;12.63;;;14.30;99.90;;;;;;5094820;27;20951;-68
2022/07/08 03:27:36;;;;;;;16.90;11.43;;;14.30;99.90;;;;;;5096112;28;20493;-66
2022/07/08 03:30:05;;;;;;;12.03;10.87;;;14.20;99.90;;;;;;5094029;28;20491;-66
2022/07/08 03:32:32;;;;;;;11.47;10.47;;;14.20;99.90;;;;;;5094547;28;20527;-68
2022/07/08 03:34:59;;;;;;;19.60;11.23;;;14.10;99.90;;;;;;5095238;28;20514;-66
2022/07/08 03:37:26;;;;;;;11.47;10.27;;;14.10;99.90;;;;;;5095805;28;20541;-66
2022/07/08 03:39:55;;;;;;;13.00;10.57;;;14.10;99.90;;;;;;5098389;28;20984;-68
2022/07/08 03:42:21;;;;;;;16.10;11.80;;;14.00;99.90;;;;;;5098634;28;20982;-70
2022/07/08 03:44:48;;;;;;;16.43;11.33;;;13.90;99.90;;;;;;5094784;28;20469;-70
2022/07/08 03:47:15;;;;;;;11.60;10.70;;;13.80;99.90;;;;;;5093567;28;20454;-69
2022/07/08 03:49:42;;;;;;;12.17;11.00;;;13.80;99.90;;;;;;5105240;28;20457;-67
2022/07/08 03:52:09;;;;;;;13.00;11.53;;;13.70;99.90;;;;;;5094500;28;20462;-66
2022/07/08 03:54:36;;;;;;;15.90;10.63;;;13.60;99.90;;;;;;5096121;28;20462;-66
2022/07/08 03:57:06;;;;;;;17.30;11.23;;;13.50;99.90;;;;;;5093367;28;20486;-67
2022/07/08 03:59:33;;;;;;;16.20;11.43;;;13.40;99.90;;;;;;5099058;28;20460;-66
2022/07/08 04:01:59;;;;;;;17.17;10.90;;;13.30;99.90;;;;;;5091814;28;20481;-68
2022/07/08 04:04:27;;;;;;;15.97;10.43;;;13.30;99.90;;;;;;5080537;28;20950;-66
2022/07/08 04:06:53;;;;;;;12.27;11.10;;;13.20;99.90;;;;;;5091034;28;20473;-67
2022/07/08 04:09:21;;;;;;;12.27;10.17;;;13.20;99.90;;;;;;5095397;28;20499;-66
2022/07/08 04:11:47;;;;;;;13.43;10.47;;;13.20;99.90;;;;;;5077333;28;20575;-66
2022/07/08 04:14:15;;;;;;;15.57;11.33;;;13.20;99.90;;;;;;5070431;28;20469;-66
2022/07/08 04:16:42;;;;;;;11.67;9.67;;;13.20;99.90;;;;;;5068301;28;21087;-68
2022/07/08 04:19:10;;;;;;;11.40;9.40;;;13.20;99.90;;;;;;5068943;28;20539;-68
2022/07/08 04:21:37;;;;;;;20.83;10.80;;;13.20;99.90;;;;;;5070412;28;21550;-66
2022/07/08 04:24:04;;;;;;;12.30;10.60;;;13.30;99.90;;;;;;5067972;28;20473;-66
2022/07/08 04:26:32;;;;;;;17.67;9.93;;;13.30;99.90;;;;;;5068547;28;20489;-66
2022/07/08 04:28:59;;;;;;;11.57;10.13;;;13.30;99.90;;;;;;5067117;28;20565;-66
2022/07/08 04:31:27;;;;;;;10.93;9.90;;;13.30;99.90;;;;;;5068706;28;20678;-68
2022/07/08 04:33:54;;;;;;;11.80;9.90;;;13.40;99.90;;;;;;5069013;28;20549;-67
2022/07/08 04:36:21;;;;;;;11.63;9.80;;;13.40;99.90;;;;;;5069344;28;20481;-68
2022/07/08 04:38:48;;;;;;;11.57;10.50;;;13.50;99.90;;;;;;5067804;28;20769;-67
2022/07/08 04:41:15;;;;;;;13.90;10.10;;;13.50;99.90;;;;;;5069489;28;20887;-67
2022/07/08 04:43:43;;;;;;;11.20;9.93;;;13.60;99.90;;;;;;5068081;28;20470;-67
2022/07/08 04:46:11;;;;;;;11.53;10.50;;;13.60;99.90;;;;;;5075664;28;20561;-66
2022/07/08 04:48:40;;;;;;;12.03;10.83;;;13.70;99.90;;;;;;5087808;28;20462;-67
2022/07/08 04:51:08;;;;;;;12.73;11.43;;;13.80;99.90;;;;;;5070466;28;20461;-67
2022/07/08 04:53:35;;;;;;;19.60;10.80;;;13.80;99.90;;;;;;5070012;28;20453;-68
2022/07/08 04:56:02;;;;;;;11.80;10.90;;;13.90;99.90;;;;;;5068131;28;21004;-67
2022/07/08 04:58:29;;;;;;;18.87;11.13;;;14.00;99.90;;;;;;5068090;28;20465;-66
2022/07/08 05:00:56;;;;;;;12.20;11.00;;;14.00;99.90;;;;;;5069063;28;20462;-67
2022/07/08 05:03:23;;;;;;;12.27;10.87;;;14.00;99.90;;;;;;5066727;28;20458;-67
2022/07/08 05:05:51;;;;;;;12.87;11.57;;;14.00;99.90;;;;;;5067035;28;21436;-66
2022/07/08 05:08:18;;;;;;;14.33;10.90;;;14.10;99.90;;;;;;5067731;28;20991;-67
2022/07/08 05:10:45;;;;;;;10.90;10.30;;;14.10;99.90;;;;;;5076549;28;20968;-67
2022/07/08 05:13:12;;;;;;;16.23;12.53;;;14.10;99.90;;;;;;5068662;28;20560;-67
2022/07/08 05:15:39;;;;;;;13.10;11.87;;;14.20;99.90;;;;;;5067263;28;20511;-68
2022/07/08 05:18:06;;;;;;;14.53;11.87;;;14.20;99.90;;;;;;5068546;28;20458;-67
2022/07/08 05:20:33;;;;;;;12.03;10.93;;;14.20;99.90;;;;;;5067991;28;20468;-66
2022/07/08 05:23:02;;;;;;;13.33;12.13;;;14.30;99.90;;;;;;5068691;28;20454;-66
2022/07/08 05:25:29;;;;;;;13.73;12.33;;;14.30;99.90;;;;;;5069387;28;22448;-67
2022/07/08 05:27:56;;;;;;;19.20;12.30;;;14.30;99.90;;;;;;5067884;28;20490;-67
2022/07/08 05:30:23;;;;;;;12.60;11.70;;;14.30;99.90;;;;;;5068370;28;20534;-66
2022/07/08 05:32:50;;;;;;;14.33;13.03;;;14.40;99.90;;;;;;5069359;28;20496;-68
2022/07/08 05:35:17;;;;;;;16.40;14.93;;;14.50;99.90;;;;;;5069081;28;20462;-67
2022/07/08 05:37:44;;;;;;;13.40;12.20;;;14.50;99.90;;;;;;5068175;28;20964;-67
2022/07/08 05:40:12;;;;;;;13.43;12.23;;;14.60;99.90;;;;;;5068328;28;20461;-67
2022/07/08 05:42:40;;;;;;;13.53;12.53;;;14.60;99.90;;;;;;5087928;28;20826;-66
2022/07/08 05:45:08;;;;;;;12.93;11.83;;;14.70;99.90;;;;;;5084745;28;20473;-65
2022/07/08 05:47:35;;;;;;;13.93;12.63;;;14.70;99.90;;;;;;5068953;28;20454;-67
2022/07/08 05:50:01;;;;;;;14.23;12.87;;;14.90;99.90;;;;;;5068536;28;20485;-66
2022/07/08 05:52:28;;;;;;;15.20;13.53;;;14.80;99.90;;;;;;5068936;28;21530;-66
2022/07/08 05:54:56;;;;;;;14.00;12.67;;;14.80;99.90;;;;;;5068346;28;20462;-67
2022/07/08 05:57:24;;;;;;;14.73;13.30;;;15.00;99.90;;;;;;5069945;28;20664;-68
2022/07/08 05:59:52;;;;;;;17.50;14.20;;;15.10;99.90;;;;;;5068515;28;20454;-68
2022/07/08 06:02:19;;;;;;;14.63;13.50;;;15.10;99.90;;;;;;5065324;28;21033;-65
2022/07/08 06:04:46;;;;;;;14.70;13.20;;;15.20;99.90;;;;;;5066857;28;20493;-67
2022/07/08 06:07:13;;;;;;;15.57;14.10;;;15.20;99.90;;;;;;5067433;28;21057;-66
2022/07/08 06:09:41;;;;;;;14.13;12.90;;;15.30;99.90;;;;;;5067633;28;21217;-67
2022/07/08 06:12:09;;;;;;;14.13;13.13;;;15.30;99.90;;;;;;5066371;28;20939;-65
2022/07/08 06:14:37;;;;;;;14.70;13.43;;;15.40;99.90;;;;;;5066482;28;20827;-64
2022/07/08 06:17:04;;;;;;;14.53;13.53;;;15.60;99.90;;;;;;5067383;28;20469;-66
2022/07/08 06:19:31;;;;;;;14.97;13.60;;;15.60;99.90;;;;;;5067772;28;20473;-66
2022/07/08 06:21:58;;;;;;;15.13;14.00;;;15.70;99.90;;;;;;5066191;28;20470;-65
2022/07/08 06:24:24;;;;;;;14.47;13.57;;;15.70;99.90;;;;;;5066521;28;20470;-65
2022/07/08 06:26:52;;;;;;;15.37;14.00;;;15.70;99.90;;;;;;5067189;28;20845;-67
2022/07/08 06:29:19;;;;;;;16.63;14.30;;;15.80;99.90;;;;;;5066905;28;20462;-66
2022/07/08 06:31:47;;;;;;;14.70;13.30;;;15.80;99.90;;;;;;5066625;28;20465;-66
2022/07/08 06:34:14;;;;;;;15.40;14.10;;;15.90;99.90;;;;;;5067179;28;20465;-67
2022/07/08 06:36:41;;;;;;;15.17;13.87;;;15.80;99.90;;;;;;5067299;28;20493;-65
2022/07/08 06:39:09;;;;;;;15.93;14.60;;;16.00;99.90;;;;;;5066434;28;20473;-65
2022/07/08 06:41:36;;;;;;;15.50;13.80;;;16.10;99.90;;;;;;5089330;28;20468;-67
2022/07/08 06:44:04;;;;;;;15.17;14.13;;;16.10;99.90;;;;;;5103903;28;20464;-67
2022/07/08 06:46:32;;;;;;;15.73;14.63;;;16.10;99.90;;;;;;5100687;28;20922;-66
2022/07/08 06:49:00;;;;;;;15.03;13.77;;;16.10;99.90;;;;;;5097366;28;20457;-65
2022/07/08 06:51:26;;;;;;;16.30;15.00;;;16.20;99.90;;;;;;5070709;28;20458;-66
2022/07/08 06:56:38;;;;;;;15.67;14.30;;;16.30;99.90;;;;;;5071366;28;20529;-66
2022/07/08 06:59:06;;;;;;;16.80;15.10;;;16.40;99.90;;;;;;5070326;28;20457;-67
2022/07/08 07:01:32;;;;;;;14.93;13.97;;;16.50;99.90;;;;;;5070328;28;20466;-67
2022/07/08 07:04:01;;;;;;;15.00;14.00;;;16.60;99.90;;;;;;5070206;28;20469;-66
2022/07/08 07:06:29;;;;;;;15.67;14.23;;;16.80;99.90;;;;;;5071057;28;20472;-66
2022/07/08 07:08:55;;;;;;;14.93;14.00;;;17.00;99.90;;;;;;5070176;28;20854;-66
2022/07/08 07:11:22;;;;;;;15.60;14.30;;;17.00;99.90;;;;;;5068869;28;20950;-67
2022/07/08 07:13:49;;;;;;;16.70;15.10;;;17.10;99.90;;;;;;5069606;28;20466;-67
2022/07/08 07:16:17;;;;;;;18.90;14.20;;;17.20;99.90;;;;;;5069916;28;20992;-65
2022/07/08 07:18:44;;;;;;;14.47;13.47;;;17.40;99.90;;;;;;5070707;28;21161;-65
2022/07/08 07:21:12;;;;;;;14.73;13.70;;;17.50;99.90;;;;;;5069856;28;20802;-67
2022/07/08 07:23:39;;;;;;;14.90;13.90;;;17.70;99.90;;;;;;5069419;28;20999;-65
2022/07/08 07:26:06;;;;;;;15.50;14.30;;;17.60;99.90;;;;;;5065354;28;20650;-66
2022/07/08 07:28:34;;;;;;;15.20;14.10;;;17.70;99.90;;;;;;5068717;28;20961;-65
2022/07/08 07:31:02;;;;;;;15.40;14.23;;;17.80;99.90;;;;;;5098972;28;20468;-67
2022/07/08 07:33:29;;;;;;;15.40;14.20;;;17.80;99.90;;;;;;5078410;28;20915;-66
2022/07/08 07:35:56;;;;;;;15.67;14.47;;;17.50;99.90;;;;;;5068905;28;20825;-65
2022/07/08 07:38:24;;;;;;;14.80;13.83;;;17.50;99.90;;;;;;5088715;28;20663;-64
2022/07/08 07:40:51;;;;;;;15.07;14.00;;;17.60;99.90;;;;;;5089921;28;20691;-66
2022/07/08 07:43:19;;;;;;;15.67;14.60;;;17.60;99.90;;;;;;5092686;28;20978;-66
2022/07/08 07:45:45;;;;;;;16.33;14.87;;;17.60;99.90;;;;;;5083536;28;20490;-64
2022/07/08 07:48:12;;;;;;;15.37;14.37;;;17.50;99.90;;;;;;5068291;28;21451;-65
2022/07/08 07:50:40;;;;;;;16.37;14.97;;;17.50;99.90;;;;;;5097435;28;20458;-65
2022/07/08 07:53:07;;;;;;;16.90;15.80;;;17.70;99.90;;;;;;5095733;28;20470;-65
2022/07/08 07:55:36;;;;;;;15.90;14.70;;;17.80;99.90;;;;;;5098612;28;20469;-65
2022/07/08 07:58:02;;;;;;;15.57;14.47;;;18.00;99.90;;;;;;5073826;28;20516;-65
2022/07/08 08:00:29;;;;;;;15.27;14.23;;;18.10;99.90;;;;;;5066879;28;20507;-65
2022/07/08 08:02:56;;;;;;;14.93;13.90;;;18.10;99.90;;;;;;5067123;28;20645;-67
2022/07/08 08:05:23;;;;;;;16.00;14.70;;;18.40;99.90;;;;;;5068653;28;21037;-65
2022/07/08 08:07:50;;;;;;;16.17;15.00;;;18.80;99.90;;;;;;5068545;28;20852;-65
2022/07/08 08:10:17;;;;;;;16.50;15.23;;;18.90;99.90;;;;;;5070044;28;20462;-68
2022/07/08 08:12:45;;;;;;;17.17;15.37;;;19.20;99.90;;;;;;5068851;28;20998;-67
2022/07/08 08:15:12;;;;;;;17.50;15.77;;;19.80;99.90;;;;;;5068484;28;23154;-66
2022/07/08 08:17:40;;;;;;;16.57;15.13;;;20.30;99.90;;;;;;5069605;28;20486;-65
2022/07/08 08:20:09;;;;;;;17.30;15.60;;;20.80;99.90;;;;;;5068387;28;20824;-66
2022/07/08 08:22:51;;;;;;;16.57;15.27;;;20.40;99.90;;;;;;5067942;28;20462;-65
2022/07/08 08:25:18;;;;;;;15.90;14.37;;;20.20;99.90;;;;;;5067127;28;20462;-66
2022/07/08 08:27:46;;;;;;;15.80;14.90;;;19.90;99.90;;;;;;5069078;28;20478;-68
2022/07/08 08:30:15;;;;;;;16.20;15.03;;;19.70;99.90;;;;;;5069292;28;21031;-66
2022/07/08 08:32:41;;;;;;;15.43;14.37;;;19.80;99.90;;;;;;5068305;28;20490;-67
2022/07/08 08:35:10;;;;;;;17.33;15.77;;;20.50;99.90;;;;;;5068749;28;20478;-68
2022/07/08 08:37:37;;;;;;;16.83;15.60;;;21.30;99.90;;;;;;5068436;28;20486;-66
2022/07/08 08:40:04;;;;;;;16.43;14.83;;;22.20;99.90;;;;;;5068967;28;21101;-66
2022/07/08 08:42:32;;;;;;;16.37;15.27;;;22.70;99.90;;;;;;5067879;28;21062;-67
2022/07/08 08:45:02;;;;;;;16.10;14.80;;;22.50;99.90;;;;;;5065943;28;20504;-66
2022/07/08 08:47:30;;;;;;;16.40;15.00;;;23.10;99.90;;;;;;5066716;28;20476;-66
2022/07/08 08:50:53;;;;;;;15.83;14.80;;;23.10;99.90;;;;;;5067844;28;21039;-66
2022/07/08 08:52:48;;;;;;;16.07;14.97;;;23.40;99.30;;;;;;5066799;28;20446;-66
2022/07/08 08:55:24;;;;;;;16.80;15.50;;;23.60;98.90;;;;;;5068431;28;20474;-66
2022/07/08 08:57:51;;;;;;;15.73;14.73;;;24.20;97.70;;;;;;5073872;28;21062;-67
2022/07/08 09:00:20;;;;;;;16.67;15.10;;;24.40;97.00;;;;;;5069032;28;20488;-66
2022/07/08 09:02:47;;;;;;;15.93;14.80;;;24.20;96.40;;;;;;5065907;28;20466;-66
2022/07/08 09:05:15;;;;;;;16.97;15.43;;;23.90;96.20;;;;;;5067019;28;20469;-65
2022/07/08 09:07:43;;;;;;;15.73;14.77;;;23.90;95.30;;;;;;5066998;28;20532;-67
2022/07/08 09:10:11;;;;;;;16.13;15.03;;;23.60;94.90;;;;;;5067420;28;20461;-65
2022/07/08 09:12:37;;;;;;;15.97;14.97;;;24.10;93.90;;;;;;5066630;28;20846;-67
2022/07/08 09:15:05;;;;;;;16.07;14.80;;;24.60;93.60;;;;;;5064744;28;20457;-67
2022/07/08 09:17:44;;;;;;;15.80;14.80;;;25.40;92.40;;;;;;5065550;28;20536;-67
2022/07/08 09:20:10;;;;;;;15.90;14.97;;;25.00;92.40;;;;;;5064011;28;21046;-65
2022/07/08 09:22:37;;;;;;;17.37;15.90;;;25.40;92.00;;;;;;5065136;28;20808;-67
2022/07/08 09:25:05;;;;;;;16.30;14.97;;;25.70;91.00;;;;;;5063131;28;20473;-67
2022/07/08 09:27:32;;;;;;;20.60;15.50;;;25.70;88.60;;;;;;5063900;28;20493;-67
2022/07/08 09:30:01;;;;;;;16.67;15.40;;;26.10;86.10;;;;;;5063649;28;20496;-66
2022/07/08 09:32:28;;;;;;;16.50;15.10;;;26.00;87.40;;;;;;5093562;28;20580;-67
2022/07/08 09:34:57;;;;;;;16.97;15.53;;;25.30;86.60;;;;;;5078947;28;20454;-66
2022/07/08 09:37:24;;;;;;;16.17;14.83;;;25.10;88.60;;;;;;5075795;28;20569;-66
2022/07/08 09:39:51;;;;;;;16.70;15.37;;;25.30;87.10;;;;;;5067650;28;20462;-68
2022/07/08 09:42:17;;;;;;;15.83;14.90;;;25.80;87.20;;;;;;5064625;28;21274;-67
2022/07/08 09:44:51;;;;;;;16.90;15.70;;;26.20;85.40;;;;;;5065495;28;20458;-66
2022/07/08 09:47:19;;;;;;;16.53;15.00;;;25.80;84.50;;;;;;5067008;28;20565;-67
2022/07/08 09:49:47;;;;;;;17.17;15.93;;;25.70;85.80;;;;;;5067344;28;20488;-66
2022/07/08 09:52:23;;;;;;;17.20;15.53;;;25.90;86.20;;;;;;5065980;28;20474;-67
2022/07/08 09:55:01;;;;;;;18.00;16.30;;;25.90;86.10;;;;;;5066082;28;21434;-67
2022/07/08 09:57:29;;;;;;;15.90;14.93;;;26.60;84.20;;;;;;5067411;28;20501;-68
2022/07/08 09:59:56;;;;;;;17.03;15.53;;;26.90;82.70;;;;;;5066421;28;20557;-68
2022/07/08 10:02:24;;;;;;;17.90;16.10;;;27.80;80.10;;;;;;5066454;28;21076;-67
2022/07/08 10:04:51;;;;;;;16.53;15.40;;;28.10;80.50;;;;;;5066721;28;20470;-67
2022/07/08 10:07:17;;;;;;;17.17;15.57;;;28.30;76.50;;;;;;5067438;28;22838;-67
2022/07/08 10:09:46;;;;;;;15.57;14.60;;;27.90;75.70;;;;;;5066944;28;20470;-67
2022/07/08 10:12:15;;;;;;;16.93;15.17;;;28.30;73.70;;;;;;5066833;28;20458;-66
2022/07/08 10:14:45;;;;;;;16.50;15.30;;;28.00;73.60;;;;;;5066435;28;20465;-67
2022/07/08 10:17:18;;;;;;;16.53;15.43;;;27.10;74.80;;;;;;5069829;28;21293;-66
2022/07/08 10:19:46;;;;;;;15.70;14.80;;;26.40;75.50;;;;;;5068295;28;20988;-67
2022/07/08 10:22:15;;;;;;;16.07;14.90;;;27.50;74.90;;;;;;5070047;28;21258;-68
2022/07/08 10:24:46;;;;;;;16.53;15.10;;;27.50;74.50;;;;;;5070111;28;20500;-68
2022/07/08 10:27:13;;;;;;;16.43;15.33;;;26.70;75.80;;;;;;5091691;28;20503;-67
2022/07/08 10:29:42;;;;;;;16.13;15.00;;;26.00;77.30;;;;;;5098224;28;20492;-67
2022/07/08 10:32:24;;;;;;;16.80;15.23;;;25.60;79.10;;;;;;5095512;28;20461;-68
2022/07/08 10:35:10;;;;;;;16.73;15.63;;;26.10;78.10;;;;;;5070774;28;20554;-68
2022/07/08 10:37:50;;;;;;;16.47;15.47;;;27.20;75.80;;;;;;5071055;28;20499;-67
2022/07/08 10:40:49;;;;;;;16.70;15.40;;;28.30;73.00;;;;;;5071082;28;20462;-68
2022/07/08 10:43:23;;;;;;;16.60;15.53;;;29.00;72.60;;;;;;5068424;28;20531;-68
2022/07/08 10:46:04;;;;;;;17.43;15.90;;;28.10;71.80;;;;;;5071093;28;21305;-68
2022/07/08 10:48:47;;;;;;;16.97;15.40;;;28.80;70.60;;;;;;5070555;28;20829;-68
2022/07/08 10:51:49;;;;;;;15.87;14.70;;;28.80;71.00;;;;;;5069909;28;20891;-67
2022/07/08 10:54:31;;;;;;;16.97;15.60;;;28.60;69.00;;;;;;5069693;28;20501;-68
2022/07/08 10:57:02;;;;;;;17.03;15.80;;;28.20;69.70;;;;;;5070069;28;20562;-68
2022/07/08 10:59:30;;;;;;;17.07;15.70;;;28.30;71.30;;;;;;5071017;28;20495;-68
2022/07/08 11:02:00;;;;;;;17.03;15.80;;;29.30;68.90;;;;;;5070026;28;20566;-67
2022/07/08 11:04:30;;;;;;;17.90;16.47;;;29.20;68.80;;;;;;5070420;28;20473;-68
2022/07/08 11:07:23;;;;;;;17.80;16.47;;;29.30;66.70;;;;;;5069062;28;20469;-67
2022/07/08 11:09:51;;;;;;;17.47;16.37;;;28.60;69.10;;;;;;5069226;28;20519;-68
2022/07/08 11:12:22;;;;;;;17.20;15.87;;;28.70;69.40;;;;;;5068929;28;20469;-68
2022/07/08 11:14:50;;;;;;;17.13;15.70;;;28.50;67.10;;;;;;5070171;28;20466;-67
2022/07/08 11:17:18;;;;;;;16.47;15.47;;;28.40;66.50;;;;;;5070199;28;21129;-67
2022/07/08 11:19:46;;;;;;;16.83;15.30;;;28.40;69.20;;;;;;5068077;28;20525;-67
2022/07/08 11:22:13;;;;;;;16.33;14.93;;;28.30;66.70;;;;;;5068832;28;20493;-69
2022/07/08 11:24:44;;;;;;;17.97;16.30;;;28.20;67.70;;;;;;5069710;28;20548;-68
2022/07/08 11:27:11;;;;;;;16.43;15.17;;;28.90;66.30;;;;;;5068455;28;21181;-67
2022/07/08 11:29:47;;;;;;;15.73;14.73;;;30.00;65.00;;;;;;5069479;28;20478;-69
2022/07/08 11:32:14;;;;;;;16.87;15.63;;;31.30;62.00;;;;;;5085275;28;20677;-67
2022/07/08 11:34:41;;;;;;;16.40;15.10;;;32.00;59.80;;;;;;5092197;28;20992;-67
2022/07/08 11:37:08;;;;;;;16.43;15.10;;;30.70;61.50;;;;;;5093330;28;20572;-68
2022/07/08 11:39:35;;;;;;;16.77;15.10;;;30.40;61.00;;;;;;5079373;28;20502;-68
2022/07/08 11:42:02;;;;;;;16.47;15.10;;;30.20;61.90;;;;;;5068610;28;20802;-67
2022/07/08 11:44:29;;;;;;;16.53;15.50;;;29.40;63.90;;;;;;5069755;28;20456;-67
2022/07/08 11:46:58;;;;;;;15.80;14.80;;;28.40;65.20;;;;;;5068644;28;20453;-69
2022/07/08 11:49:25;;;;;;;15.43;14.43;;;28.30;66.70;;;;;;5069557;28;21268;-68
2022/07/08 11:51:53;;;;;;;16.17;14.73;;;28.50;65.70;;;;;;5068986;28;20458;-68
2022/07/08 11:54:23;;;;;;;26.23;14.60;;;28.30;66.90;;;;;;5069163;28;20460;-68
2022/07/08 11:56:53;;;;;;;16.27;14.90;;;27.90;66.90;;;;;;5066954;28;20795;-69
2022/07/08 11:59:23;;;;;;;15.57;14.20;;;28.40;68.70;;;;;;5068829;27;20890;-68
2022/07/08 12:01:50;;;;;;;14.70;13.80;;;27.40;68.90;;;;;;5068569;28;20465;-68
2022/07/08 12:04:19;;;;;;;15.53;14.00;;;26.80;70.60;;;;;;5068232;28;20556;-68
2022/07/08 12:06:48;;;;;;;15.33;14.43;;;27.10;70.50;;;;;;5069345;28;21241;-68
2022/07/08 12:09:15;;;;;;;15.17;14.10;;;27.40;70.00;;;;;;5068782;28;21139;-69
2022/07/08 12:11:45;;;;;;;15.27;13.87;;;28.00;69.20;;;;;;5067950;28;20965;-68
2022/07/08 12:14:13;;;;;;;15.23;13.97;;;27.90;69.00;;;;;;5068364;28;20838;-68
2022/07/08 12:16:45;;;;;;;15.30;14.20;;;28.50;67.30;;;;;;5068550;28;21430;-68
2022/07/08 12:19:30;;;;;;;15.77;14.50;;;28.90;65.80;;;;;;5069019;28;20496;-68
2022/07/08 12:21:58;;;;;;;16.20;14.87;;;28.80;64.70;;;;;;5067916;28;20975;-68
2022/07/08 12:24:27;;;;;;;15.90;14.90;;;28.70;65.90;;;;;;5067995;28;20513;-69
2022/07/08 12:26:55;;;;;;;17.23;14.87;;;29.00;64.20;;;;;;5068471;28;20488;-67
2022/07/08 12:29:22;;;;;;;16.00;14.60;;;28.60;65.00;;;;;;5068646;28;20472;-68
2022/07/08 12:31:49;;;;;;;14.93;13.67;;;28.80;66.10;;;;;;5067545;28;20484;-67
2022/07/08 12:34:19;;;;;;;39.10;15.30;;;29.20;66.70;;;;;;5089902;28;20462;-68
2022/07/08 12:36:48;;;;;;;18.07;16.20;;;29.40;65.80;;;;;;5091148;28;20462;-68
2022/07/08 12:39:17;;;;;;;15.73;14.63;;;30.00;66.40;;;;;;5067789;28;21812;-68